Terminal Aerodrome Forecast
Issued by NWS

Home | Current Version | Previous Version | Text Only | Print | Product List | Glossary On
Versions: 1 2 3 4 5 6 7 8 9 10 11 12 13 14 15 16
000
FTUS45 KGGW 290525
TAFGDV
TAF
KGDV 290525Z 2906/3006 VRB04KT P6SM FEW150
     FM291400 22004KT P6SM FEW150
     FM292000 27011KT P6SM SCT200
     FM300300 04005KT P6SM SCT150
      AMD LTD TO CLD VIS AND WIND=

USA.gov is the U.S. government's official web portal to all federal, state and local government web resources and services.